createdAt,value
2023-02-12T00:00:15.645Z,76.67
2023-02-12T00:02:48.500Z,76.09
2023-02-12T00:05:21.283Z,76.79
2023-02-12T00:07:54.733Z,76.72
2023-02-12T00:10:27.518Z,76.66
2023-02-12T00:13:04.637Z,76.80
2023-02-12T00:15:39.935Z,76.62
2023-02-12T00:18:12.824Z,76.47
2023-02-12T00:20:45.662Z,76.61
2023-02-12T00:23:18.481Z,76.33
2023-02-12T00:25:51.273Z,76.76
2023-02-12T00:28:25.599Z,76.56
2023-02-12T00:30:58.797Z,76.15
2023-02-12T00:33:32.889Z,76.21
2023-02-12T00:36:06.223Z,76.55
2023-02-12T00:38:39.264Z,76.92
2023-02-12T00:41:12.365Z,76.67
2023-02-12T00:43:47.298Z,77.02
2023-02-12T00:46:20.621Z,77.06
2023-02-12T00:48:53.529Z,76.98
2023-02-12T00:51:26.442Z,77.04
2023-02-12T00:53:59.033Z,76.75
2023-02-12T00:56:31.995Z,77.20
2023-02-12T00:59:08.244Z,76.70
2023-02-12T01:01:41.568Z,77.20
2023-02-12T01:04:14.354Z,76.67
2023-02-12T01:06:47.658Z,77.77
2023-02-12T01:09:20.567Z,77.24
2023-02-12T01:11:54.107Z,77.63
2023-02-12T01:14:28.215Z,77.34
2023-02-12T01:17:01.133Z,77.40
2023-02-12T01:19:33.788Z,77.79
2023-02-12T01:22:06.777Z,77.14
2023-02-12T01:24:39.737Z,77.18
2023-02-12T01:27:12.459Z,77.16
2023-02-12T01:29:46.710Z,78.59
2023-02-12T01:33:23.485Z,77.88
2023-02-12T01:36:01.366Z,77.71
2023-02-12T01:38:34.194Z,77.79
2023-02-12T01:41:10.284Z,77.34
2023-02-12T01:43:46.482Z,77.82
2023-02-12T01:46:20.686Z,76.78
2023-02-12T01:48:53.489Z,77.82
2023-02-12T01:51:27.084Z,77.24
2023-02-12T01:54:08.142Z,77.14
2023-02-12T01:56:48.284Z,77.13
2023-02-12T01:59:22.104Z,77.35
2023-02-12T02:01:56.546Z,77.30
2023-02-12T02:04:34.133Z,78.01
2023-02-12T02:07:09.236Z,77.54
2023-02-12T02:09:42.924Z,78.05
2023-02-12T02:12:33.316Z,77.27
2023-02-12T02:15:09.567Z,77.30
2023-02-12T02:17:51.218Z,77.20
2023-02-12T02:21:06.013Z,78.26
2023-02-12T02:24:10.944Z,77.03
2023-02-12T02:27:10.347Z,77.91
2023-02-12T02:29:58.865Z,76.94
2023-02-12T02:32:37.828Z,77.81
2023-02-12T02:35:14.136Z,77.12
2023-02-12T02:37:51.721Z,77.45
2023-02-12T02:40:31.808Z,77.62
2023-02-12T02:43:10.120Z,77.26
2023-02-12T02:45:44.617Z,77.73
2023-02-12T02:48:22.442Z,77.11
2023-02-12T02:51:01.847Z,77.99
2023-02-12T02:53:38.570Z,77.21
2023-02-12T02:56:16.651Z,77.70
2023-02-12T02:58:58.720Z,78.14
2023-02-12T03:01:37.734Z,77.47
2023-02-12T03:04:15.717Z,77.42
2023-02-12T03:06:54.760Z,77.70
2023-02-12T03:09:33.753Z,77.11
2023-02-12T03:12:12.933Z,78.01
2023-02-12T03:14:50.861Z,78.28
2023-02-12T03:17:29.012Z,77.12
2023-02-12T03:20:06.649Z,77.85
2023-02-12T03:22:43.625Z,76.93
2023-02-12T03:25:19.492Z,78.19
2023-02-12T03:28:00.686Z,78.07
2023-02-12T03:30:43.788Z,77.70
2023-02-12T03:33:23.446Z,77.40
2023-02-12T03:36:03.514Z,77.75
2023-02-12T03:38:42.558Z,78.01
2023-02-12T03:41:21.898Z,77.48
2023-02-12T03:43:57.660Z,77.03
2023-02-12T03:46:41.772Z,77.54
2023-02-12T03:49:21.498Z,77.00
2023-02-12T03:51:55.652Z,77.42
2023-02-12T03:54:28.646Z,77.32
2023-02-12T03:57:04.952Z,77.27
2023-02-12T03:59:40.645Z,78.34
2023-02-12T04:02:13.987Z,77.72
2023-02-12T04:04:48.415Z,77.64
2023-02-12T04:07:22.734Z,77.38
2023-02-12T04:09:55.464Z,77.93
2023-02-12T04:12:38.217Z,78.00
2023-02-12T04:15:37.973Z,77.60
2023-02-12T04:18:16.112Z,77.81
2023-02-12T04:20:56.536Z,77.02
2023-02-12T04:23:49.062Z,78.37
2023-02-12T04:26:29.440Z,78.19
2023-02-12T04:29:13.917Z,77.25
2023-02-12T04:31:55.255Z,78.33
2023-02-12T04:34:35.364Z,78.14
2023-02-12T04:37:16.950Z,77.20
2023-02-12T04:39:53.015Z,78.02
2023-02-12T04:42:26.022Z,78.11
2023-02-12T04:44:58.699Z,78.04
2023-02-12T04:47:31.416Z,78.29
2023-02-12T04:50:05.358Z,78.27
2023-02-12T04:52:38.086Z,77.82
2023-02-12T04:55:12.837Z,76.88
2023-02-12T04:57:45.707Z,77.56
2023-02-12T05:00:18.915Z,77.36
2023-02-12T05:02:51.710Z,77.45
2023-02-12T05:05:25.040Z,77.63
2023-02-12T05:07:57.793Z,76.87
2023-02-12T05:10:31.917Z,78.02
2023-02-12T05:13:04.635Z,76.97
2023-02-12T05:15:39.838Z,77.46
2023-02-12T05:18:12.559Z,77.35
2023-02-12T05:20:45.188Z,77.80
2023-02-12T05:23:18.000Z,77.81
2023-02-12T05:25:52.296Z,77.90
2023-02-12T05:28:25.107Z,77.46
2023-02-12T05:31:01.093Z,77.37
2023-02-12T05:33:34.411Z,77.68
2023-02-12T05:36:09.709Z,78.25
2023-02-12T05:38:42.546Z,78.08
2023-02-12T05:41:18.528Z,77.85
2023-02-12T05:43:51.684Z,77.77
2023-02-12T05:46:24.626Z,77.67
2023-02-12T05:48:57.468Z,78.10
2023-02-12T05:51:32.219Z,77.72
2023-02-12T05:54:07.355Z,77.47
2023-02-12T05:56:46.031Z,77.12
2023-02-12T05:59:21.163Z,77.49
2023-02-12T06:01:53.986Z,77.66
2023-02-12T06:04:29.288Z,77.01
2023-02-12T06:07:02.437Z,77.88
2023-02-12T06:09:36.830Z,77.77
2023-02-12T06:12:10.988Z,77.41
2023-02-12T06:14:43.771Z,77.66
2023-02-12T06:17:16.590Z,77.57
2023-02-12T06:19:49.475Z,77.80
2023-02-12T06:22:22.116Z,78.70
2023-02-12T06:24:54.910Z,77.40
2023-02-12T06:27:29.046Z,78.00
2023-02-12T06:30:01.798Z,78.27
2023-02-12T06:32:34.716Z,77.78
2023-02-12T06:35:07.898Z,77.62
2023-02-12T06:37:40.612Z,76.88
2023-02-12T06:40:14.235Z,78.16
2023-02-12T06:42:50.318Z,78.82
2023-02-12T06:45:23.301Z,77.53
2023-02-12T06:47:56.006Z,78.08
2023-02-12T06:50:29.664Z,78.50
2023-02-12T06:53:02.707Z,78.36
2023-02-12T06:55:36.026Z,78.25
2023-02-12T06:58:10.203Z,78.36
2023-02-12T07:00:43.042Z,77.81
2023-02-12T07:03:15.967Z,77.76
2023-02-12T07:05:48.705Z,77.60
2023-02-12T07:08:21.580Z,77.75
2023-02-12T07:10:54.495Z,78.18
2023-02-12T07:13:28.578Z,77.97
2023-02-12T07:16:05.750Z,78.12
2023-02-12T07:18:39.170Z,76.99
2023-02-12T07:21:13.821Z,78.22
2023-02-12T07:23:51.026Z,77.84
2023-02-12T07:26:24.646Z,77.94
2023-02-12T07:28:59.534Z,77.58
2023-02-12T07:31:32.546Z,77.72
2023-02-12T07:34:05.712Z,77.42
2023-02-12T07:36:38.715Z,77.59
2023-02-12T07:39:12.267Z,77.39
2023-02-12T07:41:44.980Z,77.38
2023-02-12T07:44:20.299Z,77.35
2023-02-12T07:46:53.009Z,77.12
2023-02-12T07:49:25.867Z,76.98
2023-02-12T07:51:58.604Z,77.03
2023-02-12T08:00:48.684Z,76.61
2023-02-12T08:03:21.499Z,77.35
2023-02-12T08:05:54.685Z,77.48
2023-02-12T08:08:27.764Z,77.25
2023-02-12T08:42:22.932Z,76.68
2023-02-12T08:47:52.303Z,75.09
2023-02-12T08:50:25.375Z,75.77
2023-02-12T08:52:58.665Z,76.34
2023-02-12T09:45:40.986Z,74.31
2023-02-12T09:48:55.034Z,72.11
2023-02-12T09:51:31.359Z,74.03
2023-02-12T09:54:11.309Z,74.29
2023-02-12T09:56:49.095Z,73.75
2023-02-12T09:59:32.121Z,74.05
2023-02-12T10:02:13.014Z,73.03
2023-02-12T10:05:00.744Z,73.50
2023-02-12T10:07:47.720Z,71.76
2023-02-12T10:10:38.409Z,73.16
2023-02-12T10:13:20.162Z,73.67
2023-02-12T10:16:02.882Z,72.84
2023-02-12T10:18:55.026Z,71.76
2023-02-12T10:21:45.167Z,72.52
2023-02-12T10:24:41.983Z,71.52
2023-02-12T10:27:17.428Z,72.14
2023-02-12T10:29:51.778Z,73.95
2023-02-12T10:32:30.934Z,73.58
2023-02-12T10:35:14.928Z,73.11
2023-02-12T10:37:54.338Z,72.49
2023-02-12T10:40:34.235Z,72.24
2023-02-12T10:43:12.844Z,71.69
2023-02-12T10:45:46.414Z,72.65
2023-02-12T10:48:23.446Z,71.83
2023-02-12T10:51:14.352Z,72.84
2023-02-12T10:53:50.108Z,72.04
2023-02-12T10:56:25.699Z,72.21
2023-02-12T10:59:01.477Z,71.52
2023-02-12T11:01:37.889Z,72.59
2023-02-12T11:04:26.023Z,72.41
2023-02-12T11:07:04.900Z,71.28
2023-02-12T11:09:45.550Z,72.68
2023-02-12T11:12:29.891Z,71.50
2023-02-12T11:15:05.421Z,70.81
2023-02-12T11:17:41.698Z,71.81
2023-02-12T11:20:28.036Z,70.57
2023-02-12T11:23:06.071Z,70.14
2023-02-12T11:25:39.314Z,71.72
2023-02-12T11:28:17.889Z,72.00
2023-02-12T11:30:54.354Z,71.04
2023-02-12T11:33:31.308Z,71.98
2023-02-12T11:36:16.640Z,71.64
2023-02-12T11:38:54.767Z,72.04
2023-02-12T11:41:34.544Z,72.09
2023-02-12T11:44:13.431Z,70.47
2023-02-12T11:46:51.206Z,71.70
2023-02-12T11:49:34.703Z,71.36
2023-02-12T11:52:22.324Z,71.24
2023-02-12T11:55:01.511Z,71.10
2023-02-12T11:57:56.289Z,70.53
2023-02-12T12:00:34.262Z,71.61
2023-02-12T12:03:14.215Z,72.06
2023-02-12T12:05:56.399Z,70.93
2023-02-12T12:08:43.628Z,72.02
2023-02-12T12:11:26.023Z,70.03
2023-02-12T12:14:09.363Z,69.76
2023-02-12T12:17:15.413Z,69.18
2023-02-12T12:19:58.942Z,72.66
2023-02-12T12:22:52.001Z,74.13
2023-02-12T12:25:32.317Z,70.78
2023-02-12T12:28:30.072Z,72.37
2023-02-12T12:31:16.679Z,71.25
2023-02-12T12:33:53.360Z,70.32
2023-02-12T12:36:41.453Z,72.41
2023-02-12T12:39:34.097Z,72.13
2023-02-12T12:42:32.083Z,72.20
2023-02-12T12:45:31.980Z,70.64
2023-02-12T12:48:24.968Z,71.55
2023-02-12T12:51:16.953Z,72.01
2023-02-12T12:54:00.473Z,71.83
2023-02-12T12:56:50.409Z,71.01
2023-02-12T12:59:54.367Z,70.87
2023-02-12T13:03:09.494Z,70.70
2023-02-12T13:06:11.358Z,70.03
2023-02-12T13:09:08.963Z,69.66
2023-02-12T13:11:51.368Z,71.05
2023-02-12T13:14:39.393Z,70.89
2023-02-12T13:17:20.491Z,71.44
2023-02-12T13:20:01.507Z,69.36
2023-02-12T13:22:41.644Z,69.58
2023-02-12T13:25:25.090Z,70.61
2023-02-12T13:28:00.833Z,70.46
2023-02-12T13:30:40.707Z,71.21
2023-02-12T13:33:22.011Z,71.65
2023-02-12T13:36:05.277Z,70.87
2023-02-12T13:38:45.901Z,70.31
2023-02-12T13:41:21.777Z,71.01
2023-02-12T13:44:08.926Z,71.58
2023-02-12T13:46:55.908Z,68.49
2023-02-12T13:49:40.902Z,71.48
2023-02-12T13:52:23.824Z,70.77
2023-02-12T13:55:15.476Z,70.76
2023-02-12T13:58:14.163Z,70.33
2023-02-12T14:01:01.060Z,70.72
2023-02-12T14:03:36.268Z,71.06
2023-02-12T14:06:15.574Z,70.31
2023-02-12T14:08:52.402Z,69.30
2023-02-12T14:11:31.244Z,71.45
2023-02-12T14:14:07.656Z,71.92
2023-02-12T14:16:42.252Z,72.61
2023-02-12T14:19:52.674Z,70.99
2023-02-12T14:23:05.199Z,72.36
2023-02-12T14:25:43.302Z,70.00
2023-02-12T14:28:30.909Z,69.21
2023-02-12T14:31:38.382Z,70.71
2023-02-12T14:34:50.352Z,70.87
2023-02-12T14:37:39.069Z,70.33
2023-02-12T14:40:44.520Z,72.12
2023-02-12T14:43:28.577Z,71.92
2023-02-12T14:46:49.637Z,71.42
2023-02-12T14:49:26.964Z,71.53
2023-02-12T14:52:04.883Z,71.49
2023-02-12T14:54:43.344Z,71.04
2023-02-12T14:57:25.441Z,73.12
2023-02-12T15:00:04.189Z,73.04
2023-02-12T15:02:38.238Z,73.10
2023-02-12T15:05:18.164Z,72.75
2023-02-12T15:07:56.058Z,72.38
2023-02-12T15:10:33.603Z,73.50
2023-02-12T15:13:20.860Z,74.39
2023-02-12T15:16:01.185Z,71.86
2023-02-12T15:18:46.823Z,72.63
2023-02-12T15:21:23.909Z,71.70
2023-02-12T15:24:04.576Z,73.02
2023-02-12T15:26:42.021Z,72.32
2023-02-12T15:29:23.097Z,72.14
2023-02-12T15:31:59.583Z,73.39
2023-02-12T15:34:34.490Z,71.22
2023-02-12T15:37:09.410Z,71.85
2023-02-12T15:39:45.889Z,72.44
2023-02-12T15:42:26.652Z,73.06
2023-02-12T15:45:22.101Z,71.66
2023-02-12T15:48:03.258Z,72.20
2023-02-12T15:50:38.081Z,72.08
2023-02-12T15:53:12.263Z,73.45
2023-02-12T15:55:47.582Z,72.93
2023-02-12T15:58:24.873Z,74.07
2023-02-12T16:01:02.672Z,70.93
2023-02-12T16:03:39.402Z,73.45
2023-02-12T16:06:14.086Z,72.31
2023-02-12T16:08:49.857Z,74.08
2023-02-12T16:11:24.268Z,72.19
2023-02-12T16:14:00.579Z,71.66
2023-02-12T16:16:41.971Z,71.78
2023-02-12T16:19:21.529Z,72.36
2023-02-12T16:21:57.933Z,72.77
2023-02-12T16:24:33.701Z,73.15
2023-02-12T16:27:10.820Z,73.01
2023-02-12T16:29:47.712Z,72.47
2023-02-12T16:32:36.947Z,72.67
2023-02-12T16:35:30.458Z,73.32
2023-02-12T16:38:04.654Z,74.82
2023-02-12T16:40:38.623Z,74.43
2023-02-12T16:43:27.636Z,74.33
2023-02-12T16:46:06.519Z,73.99
2023-02-12T16:48:41.444Z,74.52
2023-02-12T16:51:26.162Z,74.72
2023-02-12T16:54:00.926Z,74.33
2023-02-12T16:56:38.659Z,74.78
2023-02-12T16:59:11.539Z,75.11
2023-02-12T17:01:57.352Z,74.68
2023-02-12T17:04:30.646Z,74.49
2023-02-12T17:07:05.231Z,74.48
2023-02-12T17:09:38.042Z,74.51
2023-02-12T17:12:10.841Z,74.83
2023-02-12T17:14:43.881Z,75.12
2023-02-12T17:17:16.986Z,74.59
2023-02-12T17:19:49.701Z,74.95
2023-02-12T17:22:27.041Z,75.34
2023-02-12T17:24:59.916Z,74.70
2023-02-12T17:27:32.550Z,74.70
2023-02-12T17:30:08.967Z,74.56
2023-02-12T17:32:41.753Z,75.00
2023-02-12T17:35:15.048Z,74.63
2023-02-12T17:37:49.298Z,73.11
2023-02-12T17:40:22.327Z,73.92
2023-02-12T17:42:55.046Z,74.09
2023-02-12T17:45:27.988Z,74.64
2023-02-12T17:48:00.664Z,74.99
2023-02-12T17:50:33.486Z,74.48
2023-02-12T17:53:08.792Z,74.03
2023-02-12T17:55:42.237Z,75.03
2023-02-12T17:58:15.173Z,73.96
2023-02-12T18:00:47.773Z,74.23
2023-02-12T18:03:20.597Z,74.57
2023-02-12T18:05:53.303Z,75.13
2023-02-12T18:08:27.605Z,75.13
2023-02-12T18:11:05.365Z,74.83
2023-02-12T18:13:39.467Z,74.61
2023-02-12T18:16:13.079Z,74.68
2023-02-12T18:18:45.889Z,74.87
2023-02-12T18:21:18.861Z,75.14
2023-02-12T18:23:54.212Z,74.60
2023-02-12T18:26:27.101Z,75.23
2023-02-12T18:28:59.839Z,75.64
2023-02-12T18:31:33.679Z,75.05
2023-02-12T18:34:07.649Z,75.22
2023-02-12T18:36:40.638Z,75.11
2023-02-12T18:39:14.782Z,74.67
2023-02-12T18:41:47.685Z,74.94
2023-02-12T18:44:20.337Z,74.90
2023-02-12T18:46:53.311Z,75.14
2023-02-12T18:49:26.596Z,75.77
2023-02-12T18:51:59.353Z,75.32
2023-02-12T18:54:33.867Z,74.89
2023-02-12T18:57:06.597Z,74.81
2023-02-12T18:59:39.398Z,75.05
2023-02-12T19:02:13.798Z,74.81
2023-02-12T19:04:46.712Z,75.03
2023-02-12T19:07:19.651Z,74.72
2023-02-12T19:09:54.478Z,75.30
2023-02-12T19:12:28.176Z,75.39
2023-02-12T19:15:01.405Z,74.85
2023-02-12T19:17:36.165Z,74.55
2023-02-12T19:20:14.670Z,74.81
2023-02-12T19:22:47.476Z,74.37
2023-02-12T19:25:25.653Z,74.89
2023-02-12T19:27:58.636Z,74.64
2023-02-12T19:30:31.753Z,74.81
2023-02-12T19:33:05.163Z,75.08
2023-02-12T19:35:37.914Z,74.34
2023-02-12T19:38:10.605Z,74.65
2023-02-12T19:40:44.772Z,74.35
2023-02-12T19:43:17.508Z,74.54
2023-02-12T19:45:50.317Z,74.50
2023-02-12T19:48:23.397Z,74.22
2023-02-12T19:50:56.566Z,74.56
2023-02-12T19:53:29.813Z,75.07
2023-02-12T19:56:05.094Z,74.96
2023-02-12T19:58:38.496Z,74.28
2023-02-12T20:01:13.357Z,74.51
2023-02-12T20:03:47.684Z,74.70
2023-02-12T20:06:23.614Z,74.55
2023-02-12T20:08:56.966Z,74.53
2023-02-12T20:11:33.124Z,74.67
2023-02-12T20:14:07.580Z,74.78
2023-02-12T20:16:43.750Z,74.60
2023-02-12T20:19:20.586Z,74.72
2023-02-12T20:21:55.820Z,74.44
2023-02-12T20:24:31.030Z,74.68
2023-02-12T20:27:05.267Z,74.13
2023-02-12T20:29:38.161Z,74.41
2023-02-12T20:32:11.991Z,74.21
2023-02-12T20:34:50.762Z,74.74
2023-02-12T20:37:24.185Z,74.30
2023-02-12T20:39:57.058Z,74.34
2023-02-12T20:42:31.285Z,74.46
2023-02-12T20:45:04.101Z,74.84
2023-02-12T20:47:36.924Z,74.91
2023-02-12T20:50:10.277Z,74.37
2023-02-12T20:52:43.360Z,74.46
2023-02-12T20:55:16.176Z,74.49
2023-02-12T20:57:50.631Z,74.80
2023-02-12T21:00:23.842Z,74.73
2023-02-12T21:02:57.329Z,75.00
2023-02-12T21:05:30.926Z,74.50
2023-02-12T21:08:03.738Z,74.73
2023-02-12T21:10:36.382Z,75.11
2023-02-12T21:13:10.441Z,74.50
2023-02-12T21:15:43.307Z,74.64
2023-02-12T21:18:16.284Z,74.75
2023-02-12T21:20:48.838Z,74.92
2023-02-12T21:23:21.513Z,74.74
2023-02-12T21:26:00.743Z,74.47
2023-02-12T21:28:35.874Z,74.54
2023-02-12T21:31:10.923Z,74.88
2023-02-12T21:33:45.507Z,74.68
2023-02-12T21:36:20.898Z,74.89
2023-02-12T21:38:54.407Z,74.82
2023-02-12T21:41:29.004Z,74.50
2023-02-12T21:44:05.784Z,74.63
2023-02-12T21:46:39.163Z,75.46
2023-02-12T21:49:12.917Z,74.59
2023-02-12T21:51:46.612Z,74.56
2023-02-12T21:54:20.481Z,74.66
2023-02-12T21:56:53.314Z,74.56
2023-02-12T21:59:31.751Z,74.71
2023-02-12T22:02:06.051Z,74.83
2023-02-12T22:04:38.921Z,74.40
2023-02-12T22:07:11.722Z,74.69
2023-02-12T22:09:44.696Z,74.62
2023-02-12T22:12:17.540Z,74.88
2023-02-12T22:14:51.698Z,74.52
2023-02-12T22:17:24.446Z,74.71
2023-02-12T22:19:57.203Z,74.68
2023-02-12T22:22:30.169Z,74.92
2023-02-12T22:25:03.497Z,75.07
2023-02-12T22:27:36.320Z,74.90
2023-02-12T22:30:11.417Z,75.00
2023-02-12T22:32:44.299Z,74.98
2023-02-12T22:35:17.556Z,74.99
2023-02-12T22:37:50.145Z,74.85
2023-02-12T22:40:23.232Z,74.99
2023-02-12T22:42:55.972Z,74.77
2023-02-12T22:45:30.276Z,74.46
2023-02-12T22:48:03.081Z,74.67
2023-02-12T22:50:37.021Z,74.70
2023-02-12T22:53:09.865Z,74.78
2023-02-12T22:55:42.826Z,74.87
2023-02-12T22:58:15.988Z,74.64
2023-02-12T23:00:50.151Z,74.56
2023-02-12T23:03:23.122Z,74.51
2023-02-12T23:05:55.864Z,74.67
2023-02-12T23:08:28.586Z,73.89
2023-02-12T23:11:01.604Z,74.21
2023-02-12T23:13:34.549Z,74.96
2023-02-12T23:16:09.356Z,74.81
2023-02-12T23:18:42.242Z,74.72
2023-02-12T23:21:15.323Z,74.50
2023-02-12T23:23:48.114Z,74.77
2023-02-12T23:26:20.966Z,74.42
2023-02-12T23:28:53.736Z,74.73
2023-02-12T23:31:28.021Z,74.30
2023-02-12T23:34:00.800Z,74.85
2023-02-12T23:36:33.892Z,74.03
2023-02-12T23:39:06.722Z,74.22
2023-02-12T23:41:39.609Z,74.83
2023-02-12T23:44:12.888Z,74.17
2023-02-12T23:46:51.881Z,75.18
2023-02-12T23:49:24.730Z,74.69
2023-02-12T23:51:57.501Z,74.42
2023-02-12T23:54:31.636Z,74.32
2023-02-12T23:57:04.413Z,74.69
2023-02-12T23:59:37.145Z,74.32
